Time;durP1;ratioP1;P1;durP2;ratioP2;P2;SDS_P1;SDS_P2;PMS_P1;PMS_P2;Temp;Humidity;BMP_temperature;BMP_pressure;BME280_temperature;BME280_humidity;BME280_pressure;Samples;Min_cycle;Max_cycle;Signal;HPM_P1;HPM_P2
2021/06/30 00:01:33;;;;;;;3.45;3.10;;;;;;;;;;4273574;33;20217;-68
2021/06/30 00:03:59;;;;;;;2.67;2.47;;;;;;;;;;4261037;33;20096;-68
2021/06/30 00:06:25;;;;;;;7.43;2.83;;;;;;;;;;4274444;33;20120;-69
2021/06/30 00:08:53;;;;;;;4.55;2.70;;;;;;;;;;4249523;33;20476;-68
2021/06/30 00:11:21;;;;;;;5.35;3.05;;;;;;;;;;4274672;33;20123;-67
2021/06/30 00:13:46;;;;;;;6.40;2.83;;;;;;;;;;4260994;33;20116;-68
2021/06/30 00:45:32;;;;;;;5.93;3.10;;;;;;;;;;4154271;34;20480;-67
2021/06/30 00:47:58;;;;;;;3.67;2.78;;;;;;;;;;4151094;34;20107;-66
2021/06/30 00:50:24;;;;;;;4.35;3.22;;;;;;;;;;4160833;34;20119;-69
2021/06/30 00:52:50;;;;;;;4.47;3.08;;;;;;;;;;4162304;34;20198;-69
2021/06/30 00:55:15;;;;;;;4.70;2.75;;;;;;;;;;4162337;34;20526;-69
2021/06/30 00:57:42;;;;;;;3.65;3.22;;;;;;;;;;4162361;34;20579;-69
2021/06/30 01:00:08;;;;;;;5.57;3.05;;;;;;;;;;4150027;34;20560;-69
2021/06/30 01:02:34;;;;;;;4.32;2.97;;;;;;;;;;4162369;34;20118;-70
2021/06/30 01:05:00;;;;;;;5.07;4.00;;;;;;;;;;4162331;34;20479;-70
2021/06/30 01:07:26;;;;;;;4.47;3.10;;;;;;;;;;4162135;34;20134;-69
2021/06/30 01:09:52;;;;;;;5.10;3.35;;;;;;;;;;4162432;34;20110;-69
2021/06/30 01:12:18;;;;;;;3.97;3.40;;;;;;;;;;4149931;34;20174;-69
2021/06/30 01:14:44;;;;;;;4.78;3.72;;;;;;;;;;4164329;34;20118;-69
2021/06/30 01:17:10;;;;;;;5.05;3.70;;;;;;;;;;4164422;34;20130;-69
2021/06/30 01:19:37;;;;;;;8.32;3.75;;;;;;;;;;4164455;34;20213;-69
2021/06/30 01:22:05;;;;;;;8.88;4.40;;;;;;;;;;4152232;34;20122;-69
2021/06/30 01:24:31;;;;;;;4.12;3.42;;;;;;;;;;4164168;34;20102;-69
2021/06/30 01:26:57;;;;;;;3.78;3.25;;;;;;;;;;4164250;34;20219;-69
2021/06/30 01:29:23;;;;;;;6.75;4.20;;;;;;;;;;4164358;34;20095;-69
2021/06/30 01:31:49;;;;;;;5.03;3.45;;;;;;;;;;4151642;34;20627;-69
2021/06/30 01:34:15;;;;;;;4.47;3.65;;;;;;;;;;4164255;34;20202;-69
2021/06/30 01:36:47;;;;;;;4.60;3.87;;;;;;;;;;4164242;34;20487;-69
2021/06/30 01:39:14;;;;;;;6.43;4.32;;;;;;;;;;4164085;34;20099;-69
2021/06/30 01:41:40;;;;;;;5.32;3.83;;;;;;;;;;4164570;34;20429;-69
2021/06/30 01:44:06;;;;;;;5.70;3.97;;;;;;;;;;4149217;34;20520;-70
2021/06/30 01:46:33;;;;;;;4.07;3.65;;;;;;;;;;4150686;34;20225;-69
2021/06/30 01:48:59;;;;;;;5.50;3.70;;;;;;;;;;4150553;34;20162;-70
2021/06/30 01:51:25;;;;;;;5.62;4.25;;;;;;;;;;4149434;34;20499;-70
2021/06/30 01:53:58;;;;;;;6.05;3.42;;;;;;;;;;4150562;34;20129;-70
2021/06/30 01:56:24;;;;;;;4.45;3.97;;;;;;;;;;4150570;34;20123;-70
2021/06/30 01:59:19;;;;;;;4.20;3.80;;;;;;;;;;4150489;34;20507;-70
2021/06/30 02:01:45;;;;;;;7.22;3.53;;;;;;;;;;4144307;34;20100;-70
2021/06/30 02:04:11;;;;;;;5.43;4.15;;;;;;;;;;4148963;34;20103;-69
2021/06/30 02:06:41;;;;;;;4.90;4.20;;;;;;;;;;4150440;34;20566;-76
2021/06/30 02:09:09;;;;;;;7.32;4.37;;;;;;;;;;4150470;34;20107;-71
2021/06/30 02:11:35;;;;;;;6.25;4.55;;;;;;;;;;4150502;34;20123;-70
2021/06/30 02:14:01;;;;;;;8.57;4.28;;;;;;;;;;4150245;34;20126;-71
2021/06/30 02:16:27;;;;;;;5.75;3.75;;;;;;;;;;4150450;34;20126;-70
2021/06/30 02:18:53;;;;;;;8.05;5.18;;;;;;;;;;4150283;34;20539;-70
2021/06/30 02:21:19;;;;;;;5.87;4.10;;;;;;;;;;4150325;34;20625;-70
2021/06/30 02:23:45;;;;;;;5.05;4.25;;;;;;;;;;4150370;34;20227;-70
2021/06/30 02:26:11;;;;;;;5.30;3.85;;;;;;;;;;4140808;34;20139;-70
2021/06/30 02:28:36;;;;;;;5.25;4.30;;;;;;;;;;4136965;34;20119;-70
2021/06/30 02:31:02;;;;;;;8.32;4.75;;;;;;;;;;4136815;34;20116;-69
2021/06/30 02:33:28;;;;;;;5.25;4.47;;;;;;;;;;4137025;34;20186;-70
2021/06/30 02:35:55;;;;;;;5.28;4.43;;;;;;;;;;4136744;34;20241;-69
2021/06/30 02:38:21;;;;;;;9.35;4.93;;;;;;;;;;4136680;34;20115;-72
2021/06/30 02:40:47;;;;;;;5.35;4.37;;;;;;;;;;4136857;34;20127;-69
2021/06/30 02:43:13;;;;;;;5.68;4.30;;;;;;;;;;4136771;34;20119;-69
2021/06/30 02:45:39;;;;;;;5.50;4.40;;;;;;;;;;4149384;34;20133;-69
2021/06/30 02:48:05;;;;;;;6.28;4.75;;;;;;;;;;4137434;34;20115;-69
2021/06/30 02:50:31;;;;;;;9.13;4.30;;;;;;;;;;4150131;34;20199;-70
2021/06/30 02:52:57;;;;;;;6.82;4.35;;;;;;;;;;4156480;34;20122;-69
2021/06/30 02:55:23;;;;;;;8.88;4.90;;;;;;;;;;4150963;34;20477;-69
2021/06/30 02:57:49;;;;;;;6.03;4.20;;;;;;;;;;4163690;34;20667;-69
2021/06/30 03:00:24;;;;;;;8.63;4.62;;;;;;;;;;4163603;34;20115;-70
2021/06/30 03:02:51;;;;;;;6.35;4.45;;;;;;;;;;4163551;34;20134;-70
2021/06/30 03:05:17;;;;;;;11.82;5.30;;;;;;;;;;4163538;34;20129;-69
2021/06/30 03:07:43;;;;;;;6.10;5.15;;;;;;;;;;4163320;34;20126;-70
2021/06/30 03:10:10;;;;;;;6.12;4.87;;;;;;;;;;4150808;34;20110;-69
2021/06/30 03:12:36;;;;;;;7.80;4.40;;;;;;;;;;4163585;34;20134;-70
2021/06/30 03:15:04;;;;;;;7.60;4.50;;;;;;;;;;4163469;34;20430;-69
2021/06/30 03:17:31;;;;;;;8.63;4.95;;;;;;;;;;4162969;34;20109;-70
2021/06/30 03:19:57;;;;;;;7.62;4.60;;;;;;;;;;4163397;34;20215;-69
2021/06/30 03:22:23;;;;;;;6.10;4.45;;;;;;;;;;4163504;34;20142;-70
2021/06/30 03:24:49;;;;;;;5.07;4.57;;;;;;;;;;4163529;34;20475;-69
2021/06/30 03:27:15;;;;;;;7.37;4.72;;;;;;;;;;4163390;34;20138;-69
2021/06/30 03:29:41;;;;;;;10.05;4.57;;;;;;;;;;4163564;34;20142;-69
2021/06/30 03:32:07;;;;;;;6.65;5.00;;;;;;;;;;4163358;34;20316;-69
2021/06/30 03:34:33;;;;;;;6.78;4.60;;;;;;;;;;4163339;34;20099;-69
2021/06/30 03:36:59;;;;;;;22.15;5.45;;;;;;;;;;4163063;34;20225;-69
2021/06/30 03:39:24;;;;;;;15.32;4.75;;;;;;;;;;4163359;34;20099;-69
2021/06/30 03:41:50;;;;;;;8.13;4.95;;;;;;;;;;4163086;34;20600;-69
2021/06/30 03:44:16;;;;;;;11.63;4.72;;;;;;;;;;4163049;34;20225;-68
2021/06/30 03:46:42;;;;;;;8.60;4.70;;;;;;;;;;4163190;34;20134;-69
2021/06/30 03:49:08;;;;;;;5.87;4.97;;;;;;;;;;4163096;34;20534;-69
2021/06/30 03:51:34;;;;;;;7.25;4.43;;;;;;;;;;4163265;34;20145;-69
2021/06/30 03:54:00;;;;;;;7.37;5.07;;;;;;;;;;4162847;34;20186;-69
2021/06/30 03:56:26;;;;;;;6.62;5.07;;;;;;;;;;4163006;34;20133;-69
2021/06/30 03:58:54;;;;;;;8.32;5.20;;;;;;;;;;4162983;34;20102;-69
2021/06/30 04:01:21;;;;;;;6.72;4.62;;;;;;;;;;4150750;34;20146;-70
2021/06/30 04:03:53;;;;;;;9.55;4.87;;;;;;;;;;4163046;34;20124;-70
2021/06/30 04:06:19;;;;;;;5.50;4.57;;;;;;;;;;4163014;34;20195;-70
2021/06/30 04:08:45;;;;;;;5.47;3.97;;;;;;;;;;4163013;34;20195;-70
2021/06/30 04:11:10;;;;;;;4.72;3.65;;;;;;;;;;4162934;34;20134;-70
2021/06/30 04:13:36;;;;;;;11.40;4.87;;;;;;;;;;4162823;34;20102;-70
2021/06/30 04:16:02;;;;;;;6.97;4.32;;;;;;;;;;4162848;34;20494;-71
2021/06/30 04:18:28;;;;;;;5.03;3.92;;;;;;;;;;4162846;34;20110;-71
2021/06/30 04:20:54;;;;;;;6.45;4.45;;;;;;;;;;4162854;34;20133;-70
2021/06/30 04:23:20;;;;;;;7.18;4.57;;;;;;;;;;4162666;34;20118;-71
2021/06/30 04:25:47;;;;;;;8.27;4.70;;;;;;;;;;4150037;34;20436;-70
2021/06/30 04:28:14;;;;;;;4.68;4.05;;;;;;;;;;4162781;34;20532;-71
2021/06/30 04:30:40;;;;;;;8.85;5.12;;;;;;;;;;4162724;34;20542;-70
2021/06/30 04:33:07;;;;;;;5.07;4.05;;;;;;;;;;4162481;34;20454;-71
2021/06/30 04:35:33;;;;;;;6.45;4.65;;;;;;;;;;4162738;34;20217;-70
2021/06/30 04:38:00;;;;;;;5.60;4.72;;;;;;;;;;4162547;34;20451;-71
2021/06/30 04:40:26;;;;;;;6.53;4.47;;;;;;;;;;4162657;34;20099;-71
2021/06/30 04:42:52;;;;;;;5.90;4.50;;;;;;;;;;4162627;34;20121;-71
2021/06/30 04:45:18;;;;;;;7.72;4.65;;;;;;;;;;4162625;34;20212;-70
2021/06/30 04:47:44;;;;;;;5.97;4.75;;;;;;;;;;4163053;34;20467;-70
2021/06/30 04:50:11;;;;;;;5.97;3.40;;;;;;;;;;4164562;34;20112;-68
2021/06/30 04:52:37;;;;;;;11.15;5.00;;;;;;;;;;4164753;34;20126;-68
2021/06/30 04:55:03;;;;;;;7.00;4.70;;;;;;;;;;4151970;34;20186;-71
2021/06/30 04:57:29;;;;;;;6.93;4.80;;;;;;;;;;4164509;34;20104;-70
2021/06/30 04:59:55;;;;;;;5.25;4.60;;;;;;;;;;4164389;34;20189;-70
2021/06/30 05:02:21;;;;;;;7.32;4.60;;;;;;;;;;4164624;34;20206;-70
2021/06/30 05:04:47;;;;;;;8.98;4.90;;;;;;;;;;4151924;34;20126;-71
2021/06/30 05:07:13;;;;;;;7.93;4.47;;;;;;;;;;4164697;34;20135;-70
2021/06/30 05:09:39;;;;;;;19.67;5.80;;;;;;;;;;4151649;34;20119;-70
2021/06/30 05:12:05;;;;;;;5.78;4.37;;;;;;;;;;4164435;34;20138;-70
2021/06/30 05:14:31;;;;;;;4.87;4.37;;;;;;;;;;4164418;34;20182;-69
2021/06/30 05:16:57;;;;;;;5.55;4.62;;;;;;;;;;4164429;34;20141;-69
2021/06/30 05:19:23;;;;;;;6.43;4.57;;;;;;;;;;4164356;34;20183;-69
2021/06/30 05:21:49;;;;;;;6.47;5.15;;;;;;;;;;4164360;34;20138;-69
2021/06/30 05:24:15;;;;;;;9.65;5.62;;;;;;;;;;4164337;34;20122;-69
2021/06/30 05:26:41;;;;;;;4.50;3.90;;;;;;;;;;4164368;34;20233;-69
2021/06/30 05:29:07;;;;;;;7.72;4.62;;;;;;;;;;4157547;34;20536;-69
2021/06/30 05:31:33;;;;;;;6.47;4.82;;;;;;;;;;4164283;34;20569;-69
2021/06/30 05:33:59;;;;;;;6.62;4.70;;;;;;;;;;4164426;34;20146;-69
2021/06/30 05:36:24;;;;;;;6.93;5.12;;;;;;;;;;4151568;34;20224;-69
2021/06/30 05:38:50;;;;;;;9.43;4.90;;;;;;;;;;4164021;34;20216;-70
2021/06/30 05:41:16;;;;;;;12.05;5.25;;;;;;;;;;4164149;34;20130;-70
2021/06/30 05:43:42;;;;;;;10.07;4.70;;;;;;;;;;4163683;34;20246;-69
2021/06/30 05:46:08;;;;;;;9.68;5.82;;;;;;;;;;4163961;34;20113;-71
2021/06/30 05:48:34;;;;;;;9.98;5.55;;;;;;;;;;4163783;34;20182;-70
2021/06/30 05:51:00;;;;;;;6.25;5.43;;;;;;;;;;4151343;34;20218;-70
2021/06/30 05:53:26;;;;;;;6.05;5.05;;;;;;;;;;4163755;34;20099;-69
2021/06/30 05:55:52;;;;;;;9.50;5.43;;;;;;;;;;4164027;34;20115;-68
2021/06/30 05:58:18;;;;;;;8.23;5.40;;;;;;;;;;4151443;34;20126;-70
2021/06/30 06:00:44;;;;;;;6.05;4.47;;;;;;;;;;4150610;34;20141;-69
2021/06/30 06:03:10;;;;;;;5.32;4.80;;;;;;;;;;4163681;34;20526;-69
2021/06/30 06:05:36;;;;;;;7.50;5.32;;;;;;;;;;4163911;34;20560;-69
2021/06/30 06:08:03;;;;;;;12.45;5.53;;;;;;;;;;4163704;34;20238;-69
2021/06/30 06:10:29;;;;;;;6.72;5.85;;;;;;;;;;4164047;34;20115;-69
2021/06/30 06:12:55;;;;;;;5.57;4.40;;;;;;;;;;4163616;34;20119;-69
2021/06/30 06:15:21;;;;;;;7.78;5.35;;;;;;;;;;4164003;34;20157;-69
2021/06/30 06:17:47;;;;;;;6.25;4.25;;;;;;;;;;4163910;34;20459;-69
2021/06/30 06:20:13;;;;;;;11.45;4.87;;;;;;;;;;4163693;34;20145;-69
2021/06/30 06:22:39;;;;;;;7.15;5.10;;;;;;;;;;4163687;34;20142;-70
2021/06/30 06:25:07;;;;;;;8.30;4.87;;;;;;;;;;4163871;34;20514;-69
2021/06/30 06:27:33;;;;;;;5.72;4.80;;;;;;;;;;4163548;34;20099;-69
2021/06/30 06:29:59;;;;;;;6.68;4.80;;;;;;;;;;4163610;34;20541;-69
2021/06/30 06:32:25;;;;;;;9.68;5.57;;;;;;;;;;4163620;34;20161;-69
2021/06/30 06:34:52;;;;;;;5.47;3.20;;;;;;;;;;4163762;34;20328;-68
2021/06/30 06:37:18;;;;;;;5.78;4.45;;;;;;;;;;4163693;34;20091;-68
2021/06/30 06:39:44;;;;;;;6.78;4.72;;;;;;;;;;4163658;34;20118;-69
2021/06/30 06:42:11;;;;;;;10.68;4.82;;;;;;;;;;4151220;34;20146;-69
2021/06/30 06:44:40;;;;;;;6.22;3.90;;;;;;;;;;4163485;34;20126;-69
2021/06/30 06:47:06;;;;;;;12.45;5.07;;;;;;;;;;4163699;34;20097;-69
2021/06/30 06:49:32;;;;;;;6.40;4.70;;;;;;;;;;4163543;34;20111;-69
2021/06/30 06:51:59;;;;;;;5.53;4.37;;;;;;;;;;4163579;34;20475;-70
2021/06/30 06:54:25;;;;;;;5.60;4.30;;;;;;;;;;4163394;34;20220;-69
2021/06/30 06:56:51;;;;;;;5.53;4.20;;;;;;;;;;4163397;34;20198;-70
2021/06/30 06:59:17;;;;;;;8.80;5.20;;;;;;;;;;4163458;34;20132;-70
2021/06/30 07:01:43;;;;;;;7.95;4.55;;;;;;;;;;4150748;34;20514;-69
2021/06/30 07:04:09;;;;;;;7.05;5.35;;;;;;;;;;4156656;34;20119;-70
2021/06/30 07:06:35;;;;;;;7.25;5.20;;;;;;;;;;4149861;34;20115;-71
2021/06/30 07:09:01;;;;;;;6.78;5.07;;;;;;;;;;4149931;34;20103;-70
2021/06/30 07:11:27;;;;;;;7.10;5.00;;;;;;;;;;4149410;34;20103;-70
2021/06/30 07:13:53;;;;;;;8.68;5.32;;;;;;;;;;4149694;34;20464;-70
2021/06/30 07:16:19;;;;;;;4.62;3.72;;;;;;;;;;4149853;34;20221;-70
2021/06/30 07:18:45;;;;;;;4.97;3.85;;;;;;;;;;4137110;34;20118;-69
2021/06/30 07:21:11;;;;;;;4.85;3.12;;;;;;;;;;4149784;34;20190;-69
2021/06/30 07:23:37;;;;;;;12.65;4.35;;;;;;;;;;4149640;34;20122;-70
2021/06/30 07:26:03;;;;;;;6.57;3.72;;;;;;;;;;4137303;34;20123;-70
2021/06/30 07:28:29;;;;;;;5.07;4.00;;;;;;;;;;4149500;34;20122;-70
2021/06/30 07:30:55;;;;;;;9.20;5.15;;;;;;;;;;4160280;34;20122;-69
2021/06/30 07:33:21;;;;;;;7.57;4.35;;;;;;;;;;4163138;34;20468;-70
2021/06/30 07:35:47;;;;;;;4.45;3.53;;;;;;;;;;4163469;34;20127;-70
2021/06/30 07:38:13;;;;;;;5.32;4.00;;;;;;;;;;4163183;34;20213;-69
2021/06/30 07:40:39;;;;;;;6.60;3.70;;;;;;;;;;4150586;34;20127;-69
2021/06/30 07:43:05;;;;;;;4.30;3.30;;;;;;;;;;4150639;34;20139;-70
2021/06/30 07:45:31;;;;;;;6.68;3.87;;;;;;;;;;4163225;34;20122;-69
2021/06/30 07:47:58;;;;;;;6.20;3.70;;;;;;;;;;4163186;34;20466;-69
2021/06/30 07:50:24;;;;;;;4.85;4.15;;;;;;;;;;4163259;34;20102;-69
2021/06/30 07:52:50;;;;;;;5.53;4.37;;;;;;;;;;4163088;34;20103;-69
2021/06/30 07:55:16;;;;;;;9.73;4.28;;;;;;;;;;4150464;34;20222;-69
2021/06/30 07:57:42;;;;;;;6.93;4.43;;;;;;;;;;4163068;34;20118;-70
2021/06/30 08:00:08;;;;;;;7.87;4.22;;;;;;;;;;4163015;34;20193;-70
2021/06/30 08:02:36;;;;;;;5.82;4.43;;;;;;;;;;4163011;34;20134;-70
2021/06/30 08:05:04;;;;;;;5.45;4.72;;;;;;;;;;4162987;34;20207;-70
2021/06/30 08:07:30;;;;;;;6.57;3.92;;;;;;;;;;4162949;34;20205;-70
2021/06/30 08:09:55;;;;;;;10.85;4.78;;;;;;;;;;4163026;34;20126;-70
2021/06/30 08:12:21;;;;;;;9.27;4.37;;;;;;;;;;4150366;34;20156;-70
2021/06/30 08:14:47;;;;;;;7.25;4.25;;;;;;;;;;4163135;34;20143;-70
2021/06/30 08:17:13;;;;;;;14.13;5.07;;;;;;;;;;4150503;34;20121;-70
2021/06/30 08:19:39;;;;;;;5.15;3.37;;;;;;;;;;4162831;34;20134;-70
2021/06/30 08:22:10;;;;;;;3.97;3.05;;;;;;;;;;4150015;34;20125;-70
2021/06/30 08:24:39;;;;;;;10.45;4.07;;;;;;;;;;4162536;34;20129;-70
2021/06/30 08:27:06;;;;;;;5.00;4.00;;;;;;;;;;4162919;34;20214;-70
2021/06/30 08:29:32;;;;;;;5.15;3.40;;;;;;;;;;4162777;34;20157;-70
2021/06/30 08:31:58;;;;;;;7.90;3.67;;;;;;;;;;4163050;34;20123;-70
2021/06/30 08:34:26;;;;;;;7.25;3.95;;;;;;;;;;4150099;34;20121;-70
2021/06/30 08:37:01;;;;;;;5.57;3.67;;;;;;;;;;4162725;34;20134;-70
2021/06/30 08:39:27;;;;;;;6.45;3.37;;;;;;;;;;4162806;34;20102;-70
2021/06/30 08:41:53;;;;;;;4.03;3.35;;;;;;;;;;4162757;34;20095;-70
2021/06/30 08:44:20;;;;;;;5.78;3.12;;;;;;;;;;4162552;34;20241;-70
2021/06/30 08:46:46;;;;;;;5.80;3.42;;;;;;;;;;4162651;34;20105;-70
2021/06/30 08:49:13;;;;;;;3.95;3.28;;;;;;;;;;4149954;34;20106;-67
2021/06/30 08:51:40;;;;;;;4.95;3.67;;;;;;;;;;4162658;34;20193;-67
2021/06/30 08:54:09;;;;;;;6.68;3.50;;;;;;;;;;4149946;34;20492;-67
2021/06/30 08:56:34;;;;;;;6.37;4.05;;;;;;;;;;4138636;34;20557;-68
2021/06/30 08:59:00;;;;;;;4.57;3.67;;;;;;;;;;4162425;34;20108;-67
2021/06/30 09:01:27;;;;;;;4.55;3.53;;;;;;;;;;4162702;34;20118;-67
2021/06/30 09:03:55;;;;;;;6.12;3.20;;;;;;;;;;4138794;34;20107;-67
2021/06/30 09:06:21;;;;;;;3.10;2.80;;;;;;;;;;4162794;34;20098;-67
2021/06/30 09:08:47;;;;;;;4.43;3.12;;;;;;;;;;4162511;34;20224;-67
2021/06/30 09:11:18;;;;;;;2.80;2.58;;;;;;;;;;4162619;34;20202;-67
2021/06/30 09:13:44;;;;;;;4.97;2.95;;;;;;;;;;4162341;34;20283;-67
2021/06/30 09:16:10;;;;;;;3.62;2.67;;;;;;;;;;4162229;34;20137;-67
2021/06/30 09:18:37;;;;;;;6.90;2.97;;;;;;;;;;4162087;34;20111;-67
2021/06/30 09:21:26;;;;;;;7.15;2.75;;;;;;;;;;4162265;34;20191;-67
2021/06/30 09:24:07;;;;;;;3.42;3.10;;;;;;;;;;4162459;34;20466;-68
2021/06/30 09:26:35;;;;;;;3.00;2.50;;;;;;;;;;4149836;34;20127;-68
2021/06/30 09:29:10;;;;;;;4.60;3.15;;;;;;;;;;4161961;34;20115;-67
2021/06/30 09:31:38;;;;;;;3.65;2.97;;;;;;;;;;4162050;34;20113;-67
2021/06/30 09:34:04;;;;;;;5.53;3.37;;;;;;;;;;4162568;34;20119;-67
2021/06/30 09:36:33;;;;;;;5.60;4.00;;;;;;;;;;4164588;34;20218;-67
2021/06/30 09:39:06;;;;;;;6.65;3.22;;;;;;;;;;4151807;34;20135;-68
2021/06/30 09:41:34;;;;;;;14.98;3.58;;;;;;;;;;4151989;34;20165;-68
2021/06/30 09:44:07;;;;;;;5.65;3.25;;;;;;;;;;4164090;34;20118;-68
2021/06/30 09:46:33;;;;;;;5.97;3.05;;;;;;;;;;4164239;34;20182;-68
2021/06/30 09:49:01;;;;;;;3.30;2.70;;;;;;;;;;4164499;34;20454;-68
2021/06/30 09:51:28;;;;;;;10.32;2.95;;;;;;;;;;4164449;34;20099;-68
2021/06/30 09:53:54;;;;;;;4.50;3.47;;;;;;;;;;4151497;34;20187;-67
2021/06/30 09:56:37;;;;;;;7.05;3.20;;;;;;;;;;4151445;34;20119;-68
2021/06/30 09:59:09;;;;;;;5.22;2.83;;;;;;;;;;4164017;34;20537;-67
2021/06/30 10:01:36;;;;;;;3.33;3.00;;;;;;;;;;4164332;34;20135;-67
2021/06/30 10:04:02;;;;;;;5.12;2.95;;;;;;;;;;4140239;34;20203;-67
2021/06/30 10:06:30;;;;;;;5.45;3.28;;;;;;;;;;4151516;34;20448;-67
2021/06/30 10:08:56;;;;;;;5.05;3.53;;;;;;;;;;4151636;34;20107;-68
2021/06/30 10:11:23;;;;;;;3.70;3.28;;;;;;;;;;4164032;34;20170;-67
2021/06/30 10:13:49;;;;;;;5.00;2.92;;;;;;;;;;4164147;34;20142;-67
2021/06/30 10:16:19;;;;;;;8.73;3.65;;;;;;;;;;4164015;34;20126;-67
2021/06/30 10:18:48;;;;;;;7.57;4.20;;;;;;;;;;4163935;34;20223;-67
2021/06/30 10:21:16;;;;;;;8.05;3.70;;;;;;;;;;4164127;34;20103;-66
2021/06/30 10:23:42;;;;;;;4.75;3.58;;;;;;;;;;4163875;34;20137;-67
2021/06/30 10:26:08;;;;;;;6.28;3.72;;;;;;;;;;4140335;34;20447;-67
2021/06/30 10:28:34;;;;;;;4.95;3.62;;;;;;;;;;4163961;34;20165;-67
2021/06/30 10:31:00;;;;;;;6.05;3.53;;;;;;;;;;4151475;34;20179;-67
2021/06/30 10:33:34;;;;;;;3.05;2.67;;;;;;;;;;4163755;34;20675;-67
2021/06/30 10:36:00;;;;;;;4.15;2.80;;;;;;;;;;4163866;34;20102;-67
2021/06/30 10:38:54;;;;;;;5.70;3.50;;;;;;;;;;4151150;34;20514;-67
2021/06/30 10:41:53;;;;;;;3.72;3.33;;;;;;;;;;4163987;34;20438;-68
2021/06/30 10:44:22;;;;;;;4.80;2.50;;;;;;;;;;4163523;34;20198;-68
2021/06/30 10:46:48;;;;;;;4.85;3.10;;;;;;;;;;4150412;34;20107;-67
2021/06/30 10:49:18;;;;;;;4.75;2.50;;;;;;;;;;4151114;34;20506;-67
2021/06/30 10:51:52;;;;;;;3.45;2.80;;;;;;;;;;4163807;34;20255;-67
2021/06/30 10:54:36;;;;;;;5.07;3.47;;;;;;;;;;4151568;34;20114;-68
2021/06/30 10:57:21;;;;;;;9.43;5.30;;;;;;;;;;4163564;34;20127;-67
2021/06/30 11:00:03;;;;;;;10.13;4.80;;;;;;;;;;4163729;34;20203;-67
2021/06/30 11:02:31;;;;;;;8.13;5.00;;;;;;;;;;4163742;34;20447;-67
2021/06/30 11:05:18;;;;;;;10.02;5.40;;;;;;;;;;4163548;34;20212;-67
2021/06/30 11:07:45;;;;;;;12.90;6.53;;;;;;;;;;4154045;34;20190;-68
2021/06/30 11:10:17;;;;;;;12.80;5.82;;;;;;;;;;4163445;34;20561;-67
2021/06/30 11:12:50;;;;;;;6.70;4.53;;;;;;;;;;4163767;34;20117;-67
2021/06/30 11:15:38;;;;;;;5.53;3.50;;;;;;;;;;4150899;34;20095;-67
2021/06/30 11:18:13;;;;;;;5.95;3.60;;;;;;;;;;4163537;34;20171;-67
2021/06/30 11:20:49;;;;;;;6.20;3.70;;;;;;;;;;4163538;34;20125;-67
2021/06/30 11:23:23;;;;;;;5.28;3.37;;;;;;;;;;4163546;34;20131;-67
2021/06/30 11:25:49;;;;;;;5.87;3.62;;;;;;;;;;4163568;34;20508;-68
2021/06/30 11:28:30;;;;;;;7.37;3.55;;;;;;;;;;4163438;34;20479;-67
2021/06/30 11:30:57;;;;;;;8.38;4.45;;;;;;;;;;4150696;34;20189;-68
2021/06/30 11:33:23;;;;;;;9.25;4.07;;;;;;;;;;4163257;34;20526;-67
2021/06/30 11:35:49;;;;;;;7.20;4.80;;;;;;;;;;4163355;34;20205;-68
2021/06/30 11:38:20;;;;;;;10.48;5.82;;;;;;;;;;4163404;34;20450;-67
2021/06/30 11:40:54;;;;;;;7.78;5.20;;;;;;;;;;4150753;34;20090;-67
2021/06/30 11:43:55;;;;;;;7.97;5.57;;;;;;;;;;4163272;34;20117;-67
2021/06/30 11:46:14;;;;;;;5.53;4.05;;;;;;;;;;4162314;34;20214;-68
2021/06/30 11:48:40;;;;;;;7.37;3.92;;;;;;;;;;4150829;34;20101;-68
2021/06/30 11:51:10;;;;;;;6.97;4.43;;;;;;;;;;4139588;34;20530;-68
2021/06/30 11:53:47;;;;;;;5.85;3.80;;;;;;;;;;4139939;34;20214;-68
2021/06/30 11:56:37;;;;;;;6.20;4.40;;;;;;;;;;4150676;34;20110;-68
2021/06/30 11:59:05;;;;;;;5.30;3.78;;;;;;;;;;4154934;34;20131;-68
2021/06/30 12:01:32;;;;;;;6.78;3.85;;;;;;;;;;4163097;34;20114;-68
2021/06/30 12:04:17;;;;;;;6.25;3.60;;;;;;;;;;4162948;34;20221;-68
2021/06/30 12:06:45;;;;;;;6.07;3.78;;;;;;;;;;4163127;34;20198;-68
2021/06/30 12:09:18;;;;;;;3.20;2.72;;;;;;;;;;4163180;34;20119;-68
2021/06/30 12:11:47;;;;;;;6.05;3.45;;;;;;;;;;4163056;34;20541;-68
2021/06/30 12:14:15;;;;;;;5.60;3.30;;;;;;;;;;4162886;34;20122;-68
2021/06/30 12:16:45;;;;;;;4.22;3.62;;;;;;;;;;4150491;34;20525;-68
2021/06/30 12:19:15;;;;;;;3.95;3.25;;;;;;;;;;4150562;34;20119;-68
2021/06/30 12:21:41;;;;;;;3.50;3.20;;;;;;;;;;4163079;34;20120;-68
2021/06/30 12:24:20;;;;;;;4.22;3.20;;;;;;;;;;4163020;34;20129;-69
2021/06/30 12:27:05;;;;;;;15.02;4.25;;;;;;;;;;4162932;34;20102;-68
2021/06/30 12:29:33;;;;;;;4.85;3.42;;;;;;;;;;4162912;34;20573;-69
2021/06/30 12:32:00;;;;;;;8.55;3.62;;;;;;;;;;4162822;34;20121;-69
2021/06/30 12:34:27;;;;;;;5.68;3.62;;;;;;;;;;4150487;34;20519;-68
2021/06/30 12:36:53;;;;;;;4.90;4.15;;;;;;;;;;4139237;34;20137;-69
2021/06/30 12:39:29;;;;;;;4.70;3.47;;;;;;;;;;4162588;34;20558;-69
2021/06/30 12:41:58;;;;;;;7.57;3.30;;;;;;;;;;4162807;34;20105;-68
2021/06/30 12:44:24;;;;;;;7.87;3.58;;;;;;;;;;4149768;34;20213;-68
2021/06/30 12:47:11;;;;;;;4.70;3.33;;;;;;;;;;4150149;34;20138;-69
2021/06/30 12:49:38;;;;;;;3.03;2.70;;;;;;;;;;4162675;34;20224;-69
2021/06/30 12:52:04;;;;;;;3.92;3.05;;;;;;;;;;4150034;34;20107;-69
2021/06/30 12:54:30;;;;;;;4.30;3.28;;;;;;;;;;4162651;34;20103;-68
2021/06/30 12:57:01;;;;;;;5.47;3.22;;;;;;;;;;4150193;34;20130;-68
2021/06/30 12:59:27;;;;;;;7.68;3.37;;;;;;;;;;4162707;34;20111;-68
2021/06/30 13:01:53;;;;;;;3.72;3.33;;;;;;;;;;4162643;34;20611;-69
2021/06/30 13:04:31;;;;;;;7.00;3.55;;;;;;;;;;4138586;34;20133;-69
2021/06/30 13:06:58;;;;;;;2.90;2.53;;;;;;;;;;4162457;34;20090;-68
2021/06/30 13:09:25;;;;;;;3.62;3.12;;;;;;;;;;4163215;34;20549;-69
2021/06/30 13:11:53;;;;;;;3.87;2.90;;;;;;;;;;4164558;34;20122;-68
2021/06/30 13:14:40;;;;;;;7.68;3.12;;;;;;;;;;4164334;34;20115;-68
2021/06/30 13:17:08;;;;;;;4.10;2.62;;;;;;;;;;4164575;34;20466;-68
2021/06/30 13:19:49;;;;;;;7.28;3.60;;;;;;;;;;4164326;34;20182;-68
2021/06/30 13:22:19;;;;;;;11.40;3.97;;;;;;;;;;4164814;34;20134;-68
2021/06/30 13:35:48;;;;;;;2.08;1.90;;;;;;;;;;4164459;34;20194;-68
2021/06/30 13:38:19;;;;;;;2.25;1.95;;;;;;;;;;4151572;34;20115;-68
2021/06/30 13:40:47;;;;;;;3.83;1.65;;;;;;;;;;4164312;34;20491;-69
2021/06/30 13:43:16;;;;;;;1.40;1.30;;;;;;;;;;4151548;34;20215;-68
2021/06/30 13:45:49;;;;;;;2.08;1.62;;;;;;;;;;4151876;34;20135;-68
2021/06/30 13:48:15;;;;;;;2.72;1.37;;;;;;;;;;4164137;34;20142;-68
2021/06/30 13:50:49;;;;;;;1.70;1.60;;;;;;;;;;4164355;34;20094;-68
2021/06/30 13:53:16;;;;;;;2.87;1.95;;;;;;;;;;4163791;34;20121;-67
2021/06/30 13:55:42;;;;;;;2.15;1.45;;;;;;;;;;4164231;34;20119;-67
2021/06/30 13:58:08;;;;;;;3.40;2.03;;;;;;;;;;4164067;34;20101;-68
2021/06/30 14:00:34;;;;;;;1.67;1.40;;;;;;;;;;4164084;34;20226;-69
2021/06/30 14:03:00;;;;;;;3.40;1.70;;;;;;;;;;4163954;34;20107;-67
2021/06/30 14:05:29;;;;;;;1.50;1.37;;;;;;;;;;4164091;34;20115;-68
2021/06/30 14:07:54;;;;;;;2.05;1.85;;;;;;;;;;4163869;34;20518;-68
2021/06/30 14:10:20;;;;;;;3.20;1.98;;;;;;;;;;4151405;34;20125;-69
2021/06/30 14:12:46;;;;;;;1.62;1.52;;;;;;;;;;4163904;34;20118;-68
2021/06/30 14:15:12;;;;;;;2.72;1.70;;;;;;;;;;4151365;34;20487;-69
2021/06/30 14:17:39;;;;;;;3.30;1.23;;;;;;;;;;4151328;34;20140;-69
2021/06/30 14:20:05;;;;;;;3.15;2.12;;;;;;;;;;4163336;34;20114;-68
2021/06/30 14:22:32;;;;;;;3.72;1.90;;;;;;;;;;4150991;34;20106;-68
2021/06/30 14:24:58;;;;;;;4.00;1.70;;;;;;;;;;4163898;34;20107;-69
2021/06/30 14:27:25;;;;;;;1.87;1.55;;;;;;;;;;4163851;34;20114;-70
2021/06/30 14:30:06;;;;;;;2.28;2.00;;;;;;;;;;4151185;34;20185;-68
2021/06/30 14:32:32;;;;;;;1.23;1.12;;;;;;;;;;4164070;34;20478;-69
2021/06/30 14:34:58;;;;;;;3.12;1.30;;;;;;;;;;4163726;34;20105;-68
2021/06/30 14:37:24;;;;;;;1.77;1.50;;;;;;;;;;4163150;34;20556;-69
2021/06/30 14:39:50;;;;;;;3.20;2.08;;;;;;;;;;4163651;34;20107;-69
2021/06/30 14:42:20;;;;;;;1.37;1.27;;;;;;;;;;4163704;34;20122;-69
2021/06/30 14:44:46;;;;;;;6.18;2.75;;;;;;;;;;4163685;34;20236;-68
2021/06/30 14:47:13;;;;;;;7.32;2.72;;;;;;;;;;4163609;34;20571;-69
2021/06/30 14:49:39;;;;;;;1.48;1.37;;;;;;;;;;4151491;34;20111;-68
2021/06/30 14:52:05;;;;;;;2.72;1.27;;;;;;;;;;4163896;34;20118;-68
2021/06/30 14:54:32;;;;;;;3.00;1.95;;;;;;;;;;4163811;34;20091;-69
2021/06/30 14:56:58;;;;;;;3.92;1.80;;;;;;;;;;4151112;34;20126;-70
2021/06/30 14:59:24;;;;;;;2.22;1.45;;;;;;;;;;4150985;34;20196;-70
2021/06/30 15:01:50;;;;;;;2.03;1.75;;;;;;;;;;4163823;34;20131;-70
2021/06/30 15:04:15;;;;;;;3.35;2.17;;;;;;;;;;4150790;34;20139;-69
2021/06/30 15:06:41;;;;;;;3.35;2.45;;;;;;;;;;4163460;34;20291;-70
2021/06/30 15:09:07;;;;;;;4.22;1.90;;;;;;;;;;4163325;34;20205;-70
2021/06/30 15:11:34;;;;;;;4.12;3.15;;;;;;;;;;4150878;34;20531;-70
2021/06/30 15:14:02;;;;;;;3.53;2.53;;;;;;;;;;4163409;34;20125;-70
2021/06/30 15:16:31;;;;;;;6.00;2.92;;;;;;;;;;4163699;34;20111;-70
2021/06/30 15:18:57;;;;;;;2.72;1.33;;;;;;;;;;4163355;34;20126;-70
2021/06/30 15:21:23;;;;;;;4.43;3.15;;;;;;;;;;4163447;34;20565;-70
2021/06/30 15:23:49;;;;;;;5.25;3.17;;;;;;;;;;4150771;34;20111;-69
2021/06/30 15:26:15;;;;;;;3.22;2.17;;;;;;;;;;4163293;34;20505;-70
2021/06/30 15:28:41;;;;;;;6.43;3.37;;;;;;;;;;4163169;34;20099;-70